Time;durP1;ratioP1;P1;durP2;ratioP2;P2;SDS_P1;SDS_P2;PMS_P1;PMS_P2;Temp;Humidity;BMP_temperature;BMP_pressure;BME280_temperature;BME280_humidity;BME280_pressure;Samples;Min_cycle;Max_cycle;Signal;HPM_P1;HPM_P2
2023/03/18 00:01:03;;;;;;;;;;;;;;;9.23;47.93;100641.78;4177082;28;20020;-64
2023/03/18 00:03:05;;;;;;;;;;;;;;;9.22;47.64;100641.97;4176403;28;20008;-64
2023/03/18 00:05:10;;;;;;;;;;;;;;;9.22;47.77;100645.50;4176148;28;20021;-65
2023/03/18 00:07:12;;;;;;;;;;;;;;;9.22;47.93;100650.06;4178294;28;20023;-64
2023/03/18 00:09:14;;;;;;;;;;;;;;;9.21;47.53;100643.81;4178310;28;20036;-64
2023/03/18 00:11:17;;;;;;;;;;;;;;;9.20;47.54;100651.06;4178067;28;20498;-65
2023/03/18 00:13:19;;;;;;;;;;;;;;;9.19;47.44;100649.38;4176790;28;20036;-64
2023/03/18 00:15:23;;;;;;;;;;;;;;;9.19;47.52;100645.84;4178454;28;19939;-64
2023/03/18 00:17:25;;;;;;;;;;;;;;;9.17;47.41;100643.31;4177081;28;20027;-64
2023/03/18 00:19:27;;;;;;;;;;;;;;;9.16;47.03;100643.50;4177755;28;19960;-64
2023/03/18 00:21:29;;;;;;;;;;;;;;;9.14;47.25;100645.53;4177394;28;20011;-65
2023/03/18 00:23:32;;;;;;;;;;;;;;;9.13;47.34;100649.22;4177809;28;20012;-64
2023/03/18 00:25:34;;;;;;;;;;;;;;;9.13;47.38;100652.75;4177520;28;20379;-62
2023/03/18 00:27:36;;;;;;;;;;;;;;;9.14;47.52;100640.13;4178158;28;20016;-64
2023/03/18 00:29:40;;;;;;;;;;;;;;;9.14;47.38;100637.44;4178381;28;20361;-64
2023/03/18 00:31:45;;;;;;;;;;;;;;;9.13;47.34;100638.44;4168486;28;20007;-65
2023/03/18 00:33:49;;;;;;;;;;;;;;;9.10;47.44;100633.38;4177502;28;20019;-64
2023/03/18 00:35:52;;;;;;;;;;;;;;;9.08;47.50;100640.81;4168833;28;19925;-65
2023/03/18 00:37:54;;;;;;;;;;;;;;;9.08;47.04;100635.41;4174704;28;20027;-64
2023/03/18 00:39:56;;;;;;;;;;;;;;;9.09;47.77;100637.94;4192412;28;20007;-64
2023/03/18 00:42:00;;;;;;;;;;;;;;;9.08;47.02;100635.41;4176943;28;20008;-65
2023/03/18 00:44:02;;;;;;;;;;;;;;;9.06;47.36;100626.66;4168893;28;20027;-64
2023/03/18 00:46:04;;;;;;;;;;;;;;;9.04;47.39;100631.38;4168566;28;20291;-64
2023/03/18 00:48:08;;;;;;;;;;;;;;;9.04;47.13;100634.06;4168850;28;20036;-64
2023/03/18 00:50:11;;;;;;;;;;;;;;;9.04;47.40;100631.38;4192634;28;20028;-64
2023/03/18 00:52:13;;;;;;;;;;;;;;;9.01;47.22;100633.41;4192194;28;19929;-65
2023/03/18 00:54:17;;;;;;;;;;;;;;;9.01;47.11;100637.94;4178275;28;20614;-64
2023/03/18 00:56:20;;;;;;;;;;;;;;;9.01;46.85;100640.63;4168194;28;20346;-64
2023/03/18 00:58:23;;;;;;;;;;;;;;;9.01;47.33;100635.22;4168726;28;20028;-65
2023/03/18 01:00:25;;;;;;;;;;;;;;;9.00;47.15;100633.56;4177079;28;20367;-64
2023/03/18 01:02:28;;;;;;;;;;;;;;;9.00;47.50;100628.19;4163505;28;20039;-64
2023/03/18 01:04:32;;;;;;;;;;;;;;;8.99;47.02;100632.72;4193167;28;20090;-64
2023/03/18 01:06:35;;;;;;;;;;;;;;;8.98;46.87;100630.19;4192566;28;20027;-64
2023/03/18 01:08:37;;;;;;;;;;;;;;;8.97;47.16;100631.22;4177136;28;20023;-65
2023/03/18 01:10:39;;;;;;;;;;;;;;;8.96;47.24;100634.91;4177882;28;20502;-65
2023/03/18 01:12:41;;;;;;;;;;;;;;;8.94;47.00;100643.16;4177111;28;20015;-65
2023/03/18 01:14:43;;;;;;;;;;;;;;;8.94;47.17;100628.84;4176342;28;20019;-65
2023/03/18 01:16:46;;;;;;;;;;;;;;;8.93;47.30;100632.56;4177493;28;19933;-65
2023/03/18 01:18:48;;;;;;;;;;;;;;;8.93;47.26;100622.59;4177653;28;19975;-65
2023/03/18 01:20:52;;;;;;;;;;;;;;;8.92;46.96;100620.94;4192568;28;20072;-65
2023/03/18 01:22:57;;;;;;;;;;;;;;;8.92;47.04;100634.41;4167413;28;20012;-64
2023/03/18 01:25:00;;;;;;;;;;;;;;;8.91;47.06;100626.50;4195380;28;20019;-65
2023/03/18 01:27:09;;;;;;;;;;;;;;;8.89;47.23;100623.16;4172271;28;20466;-64
2023/03/18 01:29:12;;;;;;;;;;;;;;;8.88;47.14;100622.28;4195253;28;20035;-64
2023/03/18 01:31:15;;;;;;;;;;;;;;;8.89;47.16;100620.44;4172118;28;20023;-64
2023/03/18 01:33:19;;;;;;;;;;;;;;;8.86;47.20;100621.63;4195634;28;20034;-65
2023/03/18 01:35:21;;;;;;;;;;;;;;;8.85;47.47;100614.53;4187894;28;19932;-64
2023/03/18 01:37:27;;;;;;;;;;;;;;;8.84;47.42;100621.78;4178696;28;19939;-65
2023/03/18 01:39:44;;;;;;;;;;;;;;;8.82;46.91;100609.50;4180018;28;19995;-64
2023/03/18 01:41:53;;;;;;;;;;;;;;;8.81;47.20;100615.91;4179102;28;20386;-64
2023/03/18 01:44:04;;;;;;;;;;;;;;;8.80;46.94;100612.34;4179635;28;20024;-65
2023/03/18 01:46:21;;;;;;;;;;;;;;;8.79;47.19;100625.97;4180856;28;19932;-64
2023/03/18 01:48:26;;;;;;;;;;;;;;;8.79;47.35;100599.06;4180525;28;19971;-64
2023/03/18 01:50:35;;;;;;;;;;;;;;;8.81;47.58;100610.53;4171824;28;20040;-64
2023/03/18 01:52:39;;;;;;;;;;;;;;;8.79;47.00;100610.69;4170985;28;20071;-64
2023/03/18 01:54:42;;;;;;;;;;;;;;;8.77;47.29;100606.47;4169039;28;20592;-64
2023/03/18 01:56:44;;;;;;;;;;;;;;;8.75;46.98;100612.03;4195190;28;20015;-64
2023/03/18 01:58:46;;;;;;;;;;;;;;;8.75;47.06;100614.72;4178755;28;20418;-64
2023/03/18 02:00:50;;;;;;;;;;;;;;;8.75;47.11;100624.66;4195751;28;20016;-65
2023/03/18 02:02:53;;;;;;;;;;;;;;;8.73;47.19;100614.06;4179961;28;20032;-65
2023/03/18 02:04:56;;;;;;;;;;;;;;;8.74;47.06;100614.88;4169523;28;20036;-63
2023/03/18 02:07:00;;;;;;;;;;;;;;;8.73;47.24;100616.75;4170621;28;20036;-65
2023/03/18 02:09:03;;;;;;;;;;;;;;;8.72;47.26;100625.00;4166736;28;20454;-65
2023/03/18 02:11:06;;;;;;;;;;;;;;;8.65;47.31;100609.50;4195625;28;20031;-65
2023/03/18 02:13:11;;;;;;;;;;;;;;;8.70;47.29;100622.47;4177853;28;20023;-64
2023/03/18 02:15:15;;;;;;;;;;;;;;;8.71;47.38;100617.91;4171517;28;20017;-64
2023/03/18 02:17:20;;;;;;;;;;;;;;;8.71;47.29;100618.75;4194962;28;20003;-65
2023/03/18 02:19:26;;;;;;;;;;;;;;;8.70;47.37;100614.38;4178849;28;19971;-64
2023/03/18 02:21:32;;;;;;;;;;;;;;;8.72;47.31;100616.91;4178348;28;20031;-64
2023/03/18 02:23:36;;;;;;;;;;;;;;;8.69;47.00;100611.88;4179949;28;20019;-64
2023/03/18 02:25:42;;;;;;;;;;;;;;;8.68;47.26;100615.56;4171338;28;20040;-64
2023/03/18 02:27:45;;;;;;;;;;;;;;;8.66;47.36;100607.66;4180404;28;20012;-64
2023/03/18 02:29:48;;;;;;;;;;;;;;;8.64;47.29;100612.38;4178951;28;20506;-65
2023/03/18 02:31:53;;;;;;;;;;;;;;;8.63;47.19;100618.75;4177628;28;20335;-65
2023/03/18 02:33:58;;;;;;;;;;;;;;;8.62;47.24;100617.06;4180273;28;20541;-65
2023/03/18 02:36:02;;;;;;;;;;;;;;;8.60;47.48;100619.09;4177414;28;20023;-63
2023/03/18 02:38:07;;;;;;;;;;;;;;;8.58;47.18;100613.88;4194815;28;20016;-64
2023/03/18 02:40:15;;;;;;;;;;;;;;;8.56;47.56;100613.19;4170801;28;20383;-64
2023/03/18 02:42:27;;;;;;;;;;;;;;;8.56;47.66;100618.59;4170924;28;20011;-65
2023/03/18 02:44:30;;;;;;;;;;;;;;;8.54;47.48;100609.84;4178896;28;20473;-64
2023/03/18 02:47:09;;;;;;;;;;;;;;;8.58;47.34;100610.34;4180262;28;20044;-64
2023/03/18 02:49:12;;;;;;;;;;;;;;;8.58;47.69;100603.09;4179006;28;20023;-65
2023/03/18 02:51:14;;;;;;;;;;;;;;;8.59;47.23;100612.88;4166186;28;20024;-65
2023/03/18 02:53:16;;;;;;;;;;;;;;;8.56;47.39;100604.28;4194189;28;20046;-64
2023/03/18 02:55:19;;;;;;;;;;;;;;;8.56;47.63;100601.59;4178314;28;20019;-65
2023/03/18 02:57:21;;;;;;;;;;;;;;;8.58;47.45;100607.66;4177546;28;20020;-64
2023/03/18 02:59:24;;;;;;;;;;;;;;;8.55;47.38;100606.13;4177879;28;20058;-65
2023/03/18 03:01:28;;;;;;;;;;;;;;;8.55;47.69;100602.59;4194516;28;20457;-64
2023/03/18 03:03:30;;;;;;;;;;;;;;;8.55;47.54;100600.72;4178163;28;20438;-65
2023/03/18 03:05:33;;;;;;;;;;;;;;;8.55;47.71;100600.72;4178553;28;20470;-64
2023/03/18 03:07:35;;;;;;;;;;;;;;;8.56;47.64;100594.34;4178131;28;20028;-64
2023/03/18 03:09:38;;;;;;;;;;;;;;;8.55;47.69;100600.72;4178192;28;20032;-65
2023/03/18 03:11:42;;;;;;;;;;;;;;;8.54;47.62;100596.38;4178799;28;19956;-64
2023/03/18 03:13:49;;;;;;;;;;;;;;;8.53;47.47;100601.94;4178372;28;19933;-65
2023/03/18 03:15:51;;;;;;;;;;;;;;;8.50;47.63;100610.34;4176974;28;20013;-64
2023/03/18 03:17:55;;;;;;;;;;;;;;;8.47;47.54;100606.94;4176371;28;20111;-64
2023/03/18 03:19:57;;;;;;;;;;;;;;;8.45;47.53;100608.16;4179340;28;20057;-65
2023/03/18 03:21:59;;;;;;;;;;;;;;;8.43;47.59;100611.00;4178491;28;20017;-64
2023/03/18 03:24:02;;;;;;;;;;;;;;;8.43;47.82;100605.63;4194468;28;20019;-65
2023/03/18 03:26:05;;;;;;;;;;;;;;;8.42;48.16;100614.66;4194355;28;20023;-65
2023/03/18 03:28:08;;;;;;;;;;;;;;;8.43;47.78;100612.81;4193980;28;20021;-65
2023/03/18 03:30:10;;;;;;;;;;;;;;;8.43;47.92;100620.88;4167409;28;20016;-64
2023/03/18 03:32:13;;;;;;;;;;;;;;;8.42;47.85;100619.22;4177732;28;20004;-65
2023/03/18 03:34:16;;;;;;;;;;;;;;;8.42;47.75;100624.59;4179138;28;20024;-65
2023/03/18 03:36:18;;;;;;;;;;;;;;;8.41;48.25;100629.13;4178511;28;20019;-65
2023/03/18 03:38:21;;;;;;;;;;;;;;;8.41;48.05;100626.41;4178496;28;20019;-65
2023/03/18 03:40:24;;;;;;;;;;;;;;;8.40;48.14;100629.28;4179038;28;20114;-65
2023/03/18 03:42:26;;;;;;;;;;;;;;;8.39;48.25;100635.69;4177925;28;20059;-64
2023/03/18 03:44:29;;;;;;;;;;;;;;;8.37;48.20;100622.41;4178140;28;20019;-64
2023/03/18 03:46:31;;;;;;;;;;;;;;;8.36;48.17;100623.41;4177680;28;20024;-64
2023/03/18 03:48:33;;;;;;;;;;;;;;;8.37;48.00;100627.78;4176955;28;20028;-64
2023/03/18 03:50:36;;;;;;;;;;;;;;;8.37;48.30;100614.31;4193611;28;20039;-65
2023/03/18 03:52:39;;;;;;;;;;;;;;;8.37;48.39;100622.41;4170198;28;20023;-64
2023/03/18 03:54:41;;;;;;;;;;;;;;;8.41;48.29;100622.91;4165497;28;20021;-66
2023/03/18 03:56:43;;;;;;;;;;;;;;;8.42;48.11;100619.22;4168752;28;19979;-65
2023/03/18 03:58:46;;;;;;;;;;;;;;;8.42;47.83;100621.91;4172363;28;20015;-65
2023/03/18 04:00:48;;;;;;;;;;;;;;;8.42;48.08;100624.59;4177239;28;20365;-65
2023/03/18 04:02:50;;;;;;;;;;;;;;;8.39;48.08;100620.38;4177234;28;20430;-65
2023/03/18 04:04:54;;;;;;;;;;;;;;;8.39;48.09;100620.38;4176568;28;20023;-65
2023/03/18 04:07:02;;;;;;;;;;;;;;;8.39;48.12;100620.38;4194043;28;20582;-65
2023/03/18 04:09:04;;;;;;;;;;;;;;;8.37;48.25;100616.16;4193418;28;20023;-65
2023/03/18 04:11:07;;;;;;;;;;;;;;;8.38;48.27;100634.81;4176732;28;20023;-65
2023/03/18 04:13:10;;;;;;;;;;;;;;;8.34;48.56;100624.56;4176656;28;20035;-65
2023/03/18 04:15:13;;;;;;;;;;;;;;;8.33;48.22;100620.19;4177138;28;20463;-65
2023/03/18 04:17:15;;;;;;;;;;;;;;;8.35;48.44;100618.19;4193424;28;20023;-65
2023/03/18 04:19:17;;;;;;;;;;;;;;;8.36;48.38;100625.25;4193562;28;20628;-65
2023/03/18 04:21:20;;;;;;;;;;;;;;;8.37;48.32;100626.91;4169141;28;20008;-65
2023/03/18 04:23:28;;;;;;;;;;;;;;;8.36;48.32;100636.03;4176323;28;20374;-65
2023/03/18 04:25:30;;;;;;;;;;;;;;;8.33;48.29;100637.19;4185174;28;20024;-65
2023/03/18 04:27:32;;;;;;;;;;;;;;;8.33;48.62;100639.03;4193513;28;20008;-64
2023/03/18 04:29:39;;;;;;;;;;;;;;;8.31;48.55;100644.59;4193851;28;20023;-64
2023/03/18 04:31:42;;;;;;;;;;;;;;;8.30;48.32;100645.59;4164421;28;20015;-64
2023/03/18 04:33:44;;;;;;;;;;;;;;;8.30;48.43;100643.72;4167750;28;20019;-63
2023/03/18 04:35:47;;;;;;;;;;;;;;;8.32;48.51;100640.03;4178277;28;20032;-64
2023/03/18 04:37:50;;;;;;;;;;;;;;;8.32;48.65;100645.41;4176386;28;20016;-64
2023/03/18 04:39:54;;;;;;;;;;;;;;;8.32;48.65;100640.03;4184479;28;19971;-65
2023/03/18 04:41:57;;;;;;;;;;;;;;;8.33;48.48;100641.72;4167292;28;20443;-64
2023/03/18 04:43:59;;;;;;;;;;;;;;;8.33;48.84;100644.41;4168866;28;19925;-64
2023/03/18 04:46:10;;;;;;;;;;;;;;;8.30;48.81;100642.88;4168789;28;20016;-65
2023/03/18 04:48:12;;;;;;;;;;;;;;;8.28;48.88;100645.75;4168821;28;20023;-64
2023/03/18 04:50:17;;;;;;;;;;;;;;;8.26;48.63;100647.78;4169523;28;20027;-65
2023/03/18 04:52:20;;;;;;;;;;;;;;;8.25;48.67;100651.44;4192779;28;20019;-65
2023/03/18 04:54:22;;;;;;;;;;;;;;;8.24;48.56;100647.06;4192493;28;20384;-64
2023/03/18 04:56:30;;;;;;;;;;;;;;;8.21;48.87;100644.72;4169227;28;20029;-64
2023/03/18 04:58:33;;;;;;;;;;;;;;;8.22;48.83;100653.63;4176808;28;20039;-63
2023/03/18 05:00:44;;;;;;;;;;;;;;;8.22;48.90;100651.78;4173309;28;20028;-64
2023/03/18 05:03:02;;;;;;;;;;;;;;;8.22;48.89;100654.47;4172228;28;20020;-65
2023/03/18 05:05:04;;;;;;;;;;;;;;;8.21;48.61;100652.81;4196064;28;19939;-65
2023/03/18 05:07:08;;;;;;;;;;;;;;;8.22;48.85;100645.56;4195944;28;20023;-65
2023/03/18 05:09:16;;;;;;;;;;;;;;;8.20;49.00;100644.91;4182443;28;20608;-65
2023/03/18 05:11:19;;;;;;;;;;;;;;;8.19;48.80;100648.59;4178881;28;20462;-64
2023/03/18 05:13:22;;;;;;;;;;;;;;;8.18;48.98;100647.75;4180084;28;20015;-64
2023/03/18 05:15:25;;;;;;;;;;;;;;;8.20;48.98;100642.22;4171807;28;20015;-64
2023/03/18 05:17:30;;;;;;;;;;;;;;;8.20;49.20;100652.97;4172480;28;20426;-64
2023/03/18 05:19:37;;;;;;;;;;;;;;;8.20;49.12;100653.81;4180809;28;20427;-63
2023/03/18 05:21:58;;;;;;;;;;;;;;;8.17;49.02;100651.44;4179410;28;20055;-64
2023/03/18 05:24:00;;;;;;;;;;;;;;;8.15;48.93;100650.78;4170184;28;20011;-64
2023/03/18 05:26:08;;;;;;;;;;;;;;;8.16;49.20;100654.28;4180130;28;20035;-63
2023/03/18 05:28:12;;;;;;;;;;;;;;;8.15;49.09;100658.84;4179292;28;20132;-64
2023/03/18 05:30:25;;;;;;;;;;;;;;;8.11;49.27;100657.47;4196473;28;20024;-64
2023/03/18 05:32:30;;;;;;;;;;;;;;;8.08;49.61;100660.47;4179106;28;20753;-65
2023/03/18 05:34:37;;;;;;;;;;;;;;;8.05;49.22;100655.44;4179586;28;20019;-64
2023/03/18 05:36:40;;;;;;;;;;;;;;;8.07;49.33;100665.03;4172497;28;20382;-64
2023/03/18 05:38:44;;;;;;;;;;;;;;;8.06;49.34;100660.66;4195581;28;20023;-64
2023/03/18 05:40:47;;;;;;;;;;;;;;;8.03;49.68;100652.06;4172023;28;20063;-64
2023/03/18 05:42:56;;;;;;;;;;;;;;;8.01;49.70;100657.59;4154261;28;20021;-64
2023/03/18 05:45:08;;;;;;;;;;;;;;;8.02;49.70;100667.34;4177987;28;20019;-64
2023/03/18 05:47:21;;;;;;;;;;;;;;;8.03;49.41;100666.34;4178937;28;20024;-64
2023/03/18 05:49:43;;;;;;;;;;;;;;;8.00;49.40;100665.84;4179847;28;20032;-64
2023/03/18 05:51:57;;;;;;;;;;;;;;;7.98;49.57;100671.38;4193027;28;20067;-65
2023/03/18 05:54:11;;;;;;;;;;;;;;;7.97;49.91;100676.91;4194244;28;20355;-65
2023/03/18 05:56:17;;;;;;;;;;;;;;;7.94;50.00;100670.00;4172018;28;20024;-64
2023/03/18 05:58:23;;;;;;;;;;;;;;;7.94;49.75;100670.00;4172131;28;20418;-65
2023/03/18 06:00:32;;;;;;;;;;;;;;;7.93;49.63;100666.47;4178503;28;20355;-65
2023/03/18 06:02:36;;;;;;;;;;;;;;;7.94;50.03;100667.31;4170426;28;20024;-64
2023/03/18 06:04:38;;;;;;;;;;;;;;;7.92;49.77;100662.09;4176829;28;20016;-64
2023/03/18 06:06:43;;;;;;;;;;;;;;;7.92;50.08;100667.47;4174469;28;20015;-63
2023/03/18 06:08:45;;;;;;;;;;;;;;;7.92;49.85;100666.66;4177646;28;20402;-65
2023/03/18 06:10:48;;;;;;;;;;;;;;;7.91;49.73;100668.47;4178305;28;20514;-66
2023/03/18 06:12:50;;;;;;;;;;;;;;;7.92;50.41;100666.66;4175811;28;20024;-66
2023/03/18 06:14:52;;;;;;;;;;;;;;;7.92;50.04;100672.03;4174290;28;20028;-63
2023/03/18 06:16:55;;;;;;;;;;;;;;;7.93;49.73;100668.31;4193908;28;20023;-61
2023/03/18 06:18:58;;;;;;;;;;;;;;;7.94;49.93;100673.53;4177414;28;20019;-63
2023/03/18 06:21:00;;;;;;;;;;;;;;;7.94;50.18;100668.16;4176717;28;20024;-63
2023/03/18 06:23:02;;;;;;;;;;;;;;;7.96;49.79;100670.69;4177063;28;20062;-62
2023/03/18 06:25:07;;;;;;;;;;;;;;;7.96;49.99;100669.84;4178065;28;20056;-63
2023/03/18 06:27:11;;;;;;;;;;;;;;;7.96;49.90;100676.06;4193131;28;20074;-63
2023/03/18 06:29:17;;;;;;;;;;;;;;;7.94;49.92;100678.91;4169629;28;20403;-64
2023/03/18 06:31:19;;;;;;;;;;;;;;;7.93;49.94;100682.63;4191068;28;20031;-63
2023/03/18 06:33:21;;;;;;;;;;;;;;;7.92;50.16;100680.91;4183265;28;20434;-64
2023/03/18 06:35:27;;;;;;;;;;;;;;;7.92;50.38;100685.47;4182991;28;19987;-64
2023/03/18 06:37:29;;;;;;;;;;;;;;;7.90;50.49;100684.78;4192049;28;20032;-64
2023/03/18 06:39:31;;;;;;;;;;;;;;;7.89;50.32;100683.94;4169455;28;20855;-63
2023/03/18 06:41:37;;;;;;;;;;;;;;;7.89;50.38;100686.63;4168577;28;20012;-64
2023/03/18 06:43:56;;;;;;;;;;;;;;;7.90;50.34;100687.50;4177425;28;20367;-63
2023/03/18 06:45:58;;;;;;;;;;;;;;;7.90;50.43;100690.19;4175332;28;20015;-63
2023/03/18 06:48:01;;;;;;;;;;;;;;;7.90;50.58;100687.50;4191218;28;20014;-63
2023/03/18 06:50:04;;;;;;;;;;;;;;;7.90;50.64;100696.38;4193153;28;20781;-63
2023/03/18 06:52:12;;;;;;;;;;;;;;;7.93;50.43;100695.19;4174641;28;20107;-63
2023/03/18 06:54:15;;;;;;;;;;;;;;;7.96;50.69;100694.06;4170251;28;20023;-63
2023/03/18 06:56:18;;;;;;;;;;;;;;;7.98;50.66;100700.09;4174825;28;20020;-61
2023/03/18 06:58:31;;;;;;;;;;;;;;;7.98;50.68;100692.91;4174459;28;20385;-61
2023/03/18 07:00:40;;;;;;;;;;;;;;;8.01;50.64;100697.09;4177449;28;20019;-63
2023/03/18 07:02:45;;;;;;;;;;;;;;;8.03;50.69;100700.47;4192177;28;20011;-64
2023/03/18 07:04:51;;;;;;;;;;;;;;;8.06;50.49;100700.16;4169939;28;20074;-64
2023/03/18 07:06:53;;;;;;;;;;;;;;;8.07;50.36;100702.69;4176352;28;20031;-63
2023/03/18 07:08:57;;;;;;;;;;;;;;;8.10;50.78;100712.25;4178179;28;20032;-61
2023/03/18 07:11:00;;;;;;;;;;;;;;;8.11;50.48;100713.97;4172400;28;19929;-63
2023/03/18 07:13:02;;;;;;;;;;;;;;;8.12;50.74;100724.56;4175551;28;20012;-65
2023/03/18 07:15:04;;;;;;;;;;;;;;;8.14;50.79;100726.25;4189337;28;20019;-65
2023/03/18 07:17:06;;;;;;;;;;;;;;;8.16;50.74;100722.38;4173135;28;20011;-64
2023/03/18 07:19:10;;;;;;;;;;;;;;;8.18;50.65;100731.16;4174027;28;20035;-62
2023/03/18 07:21:13;;;;;;;;;;;;;;;8.23;50.62;100730.66;4175287;28;20024;-63
2023/03/18 07:23:15;;;;;;;;;;;;;;;8.23;50.89;100736.88;4167404;28;20346;-64
2023/03/18 07:25:19;;;;;;;;;;;;;;;8.25;50.81;100737.56;4183683;28;20020;-64
2023/03/18 07:27:23;;;;;;;;;;;;;;;8.28;51.01;100739.94;4175025;28;20207;-64
2023/03/18 07:29:25;;;;;;;;;;;;;;;8.30;51.08;100734.38;4193149;28;20015;-65
2023/03/18 07:31:28;;;;;;;;;;;;;;;8.31;51.19;100736.06;4176679;28;20024;-65
2023/03/18 07:33:31;;;;;;;;;;;;;;;8.34;51.33;100727.69;4191542;28;20023;-64
2023/03/18 07:35:33;;;;;;;;;;;;;;;8.37;51.34;100731.88;4174723;28;20374;-63
2023/03/18 07:37:35;;;;;;;;;;;;;;;8.38;51.41;100726.31;4172627;28;20027;-64
2023/03/18 07:39:37;;;;;;;;;;;;;;;8.41;51.34;100730.56;4173006;28;20019;-64
2023/03/18 07:41:41;;;;;;;;;;;;;;;8.44;51.26;100741.03;4173452;28;20028;-64
2023/03/18 07:43:43;;;;;;;;;;;;;;;8.45;51.62;100740.88;4176152;28;20379;-64
2023/03/18 07:45:45;;;;;;;;;;;;;;;8.50;51.08;100753.84;4172028;28;20408;-64
2023/03/18 07:47:47;;;;;;;;;;;;;;;8.52;51.32;100749.13;4173224;28;20024;-63
2023/03/18 07:49:50;;;;;;;;;;;;;;;8.55;51.84;100750.66;4173206;28;20024;-65
2023/03/18 07:51:52;;;;;;;;;;;;;;;8.58;51.76;100756.53;4172898;28;19929;-64
2023/03/18 07:53:55;;;;;;;;;;;;;;;8.61;51.75;100755.38;4174925;28;20028;-65
2023/03/18 07:55:57;;;;;;;;;;;;;;;8.65;51.80;100752.19;4177590;28;20019;-62
2023/03/18 07:58:01;;;;;;;;;;;;;;;8.70;51.79;100753.53;4174867;28;20418;-63
2023/03/18 08:00:03;;;;;;;;;;;;;;;8.73;51.78;100755.91;4175755;28;20031;-64
2023/03/18 08:02:15;;;;;;;;;;;;;;;8.77;51.48;100747.34;4176100;28;20043;-64
2023/03/18 08:04:18;;;;;;;;;;;;;;;8.80;51.99;100763.16;4171675;28;20020;-65
2023/03/18 08:06:20;;;;;;;;;;;;;;;8.85;51.82;100759.97;4174977;28;20015;-65
2023/03/18 08:08:22;;;;;;;;;;;;;;;8.91;51.87;100766.56;4176232;28;20463;-64
2023/03/18 08:10:24;;;;;;;;;;;;;;;8.93;51.79;100762.69;4176807;28;20466;-65
2023/03/18 08:12:26;;;;;;;;;;;;;;;8.99;51.86;100770.09;4173920;28;19936;-64
2023/03/18 08:14:30;;;;;;;;;;;;;;;9.04;51.92;100766.06;4174434;28;20458;-64
2023/03/18 08:16:32;;;;;;;;;;;;;;;9.08;51.76;100768.28;4175351;28;20007;-63
2023/03/18 08:18:34;;;;;;;;;;;;;;;9.13;51.94;100768.59;4174734;28;20015;-63
2023/03/18 08:20:37;;;;;;;;;;;;;;;9.17;51.63;100766.44;4175586;28;20019;-64
2023/03/18 08:22:39;;;;;;;;;;;;;;;9.20;51.92;100766.09;4173763;28;20015;-63
2023/03/18 08:24:41;;;;;;;;;;;;;;;9.26;51.89;100775.34;4173267;28;20016;-64
2023/03/18 08:26:44;;;;;;;;;;;;;;;9.31;51.93;100764.91;4174600;28;20011;-64
2023/03/18 08:28:46;;;;;;;;;;;;;;;9.36;51.94;100774.19;4175857;28;20411;-64
2023/03/18 08:30:53;;;;;;;;;;;;;;;9.42;51.77;100777.22;4175507;28;20023;-64
2023/03/18 08:32:56;;;;;;;;;;;;;;;9.49;51.84;100778.22;4165805;28;20024;-64
2023/03/18 08:34:58;;;;;;;;;;;;;;;9.56;51.70;100771.13;4173466;28;20455;-65
2023/03/18 08:37:00;;;;;;;;;;;;;;;9.63;51.76;100785.63;4173989;28;20027;-64
2023/03/18 08:39:02;;;;;;;;;;;;;;;9.71;51.64;100779.38;4175686;28;20035;-64
2023/03/18 08:41:05;;;;;;;;;;;;;;;9.76;51.56;100774.31;4175107;28;20474;-64
2023/03/18 08:43:07;;;;;;;;;;;;;;;9.84;51.32;100785.13;4173666;28;20361;-65
2023/03/18 08:45:09;;;;;;;;;;;;;;;9.90;51.32;100786.25;4175171;28;20032;-65
2023/03/18 08:47:13;;;;;;;;;;;;;;;9.99;51.69;100790.63;4174638;28;20015;-63
2023/03/18 08:49:15;;;;;;;;;;;;;;;10.05;51.39;100779.16;4175527;28;20032;-64
2023/03/18 08:51:17;;;;;;;;;;;;;;;10.11;51.15;100785.72;4176119;28;20027;-65
2023/03/18 08:53:19;;;;;;;;;;;;;;;10.15;51.18;100784.34;4174171;28;20427;-64
2023/03/18 08:55:21;;;;;;;;;;;;;;;10.20;51.47;100775.72;4174944;28;20019;-64
2023/03/18 08:57:23;;;;;;;;;;;;;;;10.24;51.15;100772.50;4172569;28;20365;-65
2023/03/18 08:59:25;;;;;;;;;;;;;;;10.31;51.08;100772.66;4174236;28;20008;-64
2023/03/18 09:01:27;;;;;;;;;;;;;;;10.37;51.02;100777.38;4172973;28;20019;-63
2023/03/18 09:03:31;;;;;;;;;;;;;;;10.46;50.81;100767.41;4174418;28;20442;-66
2023/03/18 09:05:33;;;;;;;;;;;;;;;10.53;51.04;100762.13;4175291;28;20225;-63
2023/03/18 09:07:35;;;;;;;;;;;;;;;10.56;50.62;100770.72;4175351;28;20019;-63
2023/03/18 09:09:37;;;;;;;;;;;;;;;10.61;50.78;100781.00;4175667;28;20024;-64
2023/03/18 09:11:39;;;;;;;;;;;;;;;10.61;50.60;100775.59;4173859;28;20023;-64
2023/03/18 09:13:41;;;;;;;;;;;;;;;10.64;51.05;100794.16;4173720;28;19996;-64
2023/03/18 09:15:43;;;;;;;;;;;;;;;10.66;50.65;100796.66;4174794;28;20023;-65
2023/03/18 09:17:45;;;;;;;;;;;;;;;10.64;50.93;100788.75;4174302;28;20628;-64
2023/03/18 09:19:49;;;;;;;;;;;;;;;10.66;50.95;100797.53;4174119;28;20019;-64
2023/03/18 09:21:51;;;;;;;;;;;;;;;10.72;50.74;100795.97;4167291;28;19999;-64
2023/03/18 09:23:53;;;;;;;;;;;;;;;10.78;50.71;100800.66;4174323;28;20035;-62
2023/03/18 09:25:56;;;;;;;;;;;;;;;10.86;50.53;100791.69;4173385;28;20100;-64
2023/03/18 09:27:57;;;;;;;;;;;;;;;10.93;50.60;100798.06;4174092;28;20012;-64
2023/03/18 09:29:59;;;;;;;;;;;;;;;10.99;50.59;100791.94;4174840;28;20470;-64
2023/03/18 09:32:01;;;;;;;;;;;;;;;11.01;50.23;100800.72;4170109;28;20023;-64
2023/03/18 09:34:04;;;;;;;;;;;;;;;11.09;50.53;100787.13;4174689;28;20651;-65
2023/03/18 09:36:08;;;;;;;;;;;;;;;11.15;50.20;100799.09;4174884;28;20455;-64
2023/03/18 09:38:11;;;;;;;;;;;;;;;11.21;50.11;100800.22;4172945;28;20586;-63
2023/03/18 09:40:15;;;;;;;;;;;;;;;11.29;50.36;100800.19;4175163;28;20043;-63
2023/03/18 09:42:21;;;;;;;;;;;;;;;11.39;50.14;100808.88;4174120;28;20016;-62
2023/03/18 09:44:24;;;;;;;;;;;;;;;11.48;49.79;100810.50;4174875;28;20019;-61
2023/03/18 09:46:28;;;;;;;;;;;;;;;11.58;49.71;100814.84;4177213;28;20012;-62
2023/03/18 09:48:37;;;;;;;;;;;;;;;11.69;49.78;100808.97;4176706;28;20019;-62
2023/03/18 09:50:40;;;;;;;;;;;;;;;11.76;49.51;100811.81;4177488;28;20007;-62
2023/03/18 09:52:44;;;;;;;;;;;;;;;11.84;49.43;100807.16;4174320;28;20024;-62
2023/03/18 09:54:47;;;;;;;;;;;;;;;11.93;49.25;100805.25;4178370;28;20429;-63
2023/03/18 09:56:49;;;;;;;;;;;;;;;11.97;48.90;100803.00;4178579;28;20031;-62
2023/03/18 09:58:52;;;;;;;;;;;;;;;12.04;49.29;100791.25;4178303;28;20015;-62
2023/03/18 10:00:55;;;;;;;;;;;;;;;12.15;48.82;100797.25;4178850;28;20015;-62
2023/03/18 10:02:58;;;;;;;;;;;;;;;12.19;49.04;100804.78;4177889;28;20015;-63
2023/03/18 10:05:02;;;;;;;;;;;;;;;12.20;49.06;100795.66;4176999;28;20067;-61
2023/03/18 10:07:05;;;;;;;;;;;;;;;12.23;49.01;100791.75;4193217;28;20052;-64
2023/03/18 10:09:09;;;;;;;;;;;;;;;12.24;48.67;100793.41;4178964;28;20731;-63
2023/03/18 10:11:14;;;;;;;;;;;;;;;12.22;48.69;100793.59;4175890;28;20047;-65
2023/03/18 10:13:17;;;;;;;;;;;;;;;12.17;48.72;100790.59;4177399;28;20350;-63
2023/03/18 10:15:21;;;;;;;;;;;;;;;12.11;48.91;100801.34;4178653;28;20031;-63
2023/03/18 10:17:24;;;;;;;;;;;;;;;12.11;49.30;100787.81;4177692;28;20569;-62
2023/03/18 10:19:27;;;;;;;;;;;;;;;12.09;49.60;100798.81;4178727;28;20044;-63
2023/03/18 10:21:32;;;;;;;;;;;;;;;12.07;49.58;100788.19;4177724;28;20011;-63
2023/03/18 10:23:41;;;;;;;;;;;;;;;12.09;49.63;100796.13;4177271;28;20478;-64
2023/03/18 10:25:46;;;;;;;;;;;;;;;12.12;49.50;100790.34;4176982;28;20464;-64
2023/03/18 10:27:49;;;;;;;;;;;;;;;12.14;49.62;100793.69;4177959;28;20814;-63
2023/03/18 10:29:52;;;;;;;;;;;;;;;12.13;49.53;100794.72;4178162;28;20028;-63
2023/03/18 10:32:07;;;;;;;;;;;;;;;12.19;49.73;100798.53;4177004;28;20031;-63
2023/03/18 10:34:10;;;;;;;;;;;;;;;12.24;49.54;100801.53;4178290;28;20020;-64
2023/03/18 10:36:13;;;;;;;;;;;;;;;12.28;50.08;100802.84;4177945;28;20478;-63
2023/03/18 10:38:18;;;;;;;;;;;;;;;12.40;49.82;100806.78;4177695;28;20359;-64
2023/03/18 10:40:20;;;;;;;;;;;;;;;12.51;49.40;100801.91;4178416;28;20011;-64
2023/03/18 10:42:25;;;;;;;;;;;;;;;12.57;49.71;100799.28;4175954;28;20313;-63
2023/03/18 10:44:28;;;;;;;;;;;;;;;12.58;49.44;100805.53;4176399;28;20043;-63